createdAt,value
2018-05-11T00:00:10.619Z,13.10
2018-05-11T00:02:13.790Z,13.10
2018-05-11T00:04:16.966Z,13.10
2018-05-11T00:06:20.146Z,13.10
2018-05-11T00:08:23.279Z,13.00
2018-05-11T00:10:28.316Z,13.00
2018-05-11T00:12:32.253Z,13.00
2018-05-11T00:14:36.162Z,13.00
2018-05-11T00:16:39.343Z,13.00
2018-05-11T00:18:42.496Z,13.00
2018-05-11T00:20:46.407Z,12.90
2018-05-11T00:22:49.583Z,12.90
2018-05-11T00:24:52.838Z,12.90
2018-05-11T00:26:56.783Z,12.80
2018-05-11T00:28:59.931Z,12.80
2018-05-11T00:31:03.087Z,12.80
2018-05-11T00:33:08.208Z,12.80
2018-05-11T00:35:11.294Z,12.70
2018-05-11T00:37:14.466Z,12.70
2018-05-11T00:39:17.609Z,12.70
2018-05-11T00:41:20.751Z,12.60
2018-05-11T00:43:23.942Z,12.60
2018-05-11T00:45:27.959Z,12.60
2018-05-11T00:47:31.130Z,12.60
2018-05-11T00:49:34.300Z,12.50
2018-05-11T00:51:37.468Z,12.50
2018-05-11T00:53:40.627Z,12.40
2018-05-11T00:55:51.311Z,12.40
2018-05-11T00:57:55.262Z,12.30
2018-05-11T00:59:58.404Z,12.30
2018-05-11T01:02:01.927Z,12.30
2018-05-11T01:04:05.445Z,12.30
2018-05-11T01:06:08.940Z,12.30
2018-05-11T01:08:12.475Z,12.20
2018-05-11T01:10:15.969Z,12.20
2018-05-11T01:12:19.448Z,12.10
2018-05-11T01:14:23.013Z,12.10
2018-05-11T01:16:26.518Z,12.10
2018-05-11T01:18:30.059Z,12.10
2018-05-11T01:20:33.653Z,12.00
2018-05-11T01:22:37.136Z,12.00
2018-05-11T01:24:40.674Z,12.00
2018-05-11T01:26:44.190Z,12.00
2018-05-11T01:28:48.767Z,11.90
2018-05-11T01:30:53.079Z,11.90
2018-05-11T01:32:57.526Z,11.90
2018-05-11T01:35:01.029Z,11.90
2018-05-11T01:37:04.564Z,11.90
2018-05-11T01:39:09.721Z,11.80
2018-05-11T01:41:13.215Z,11.80
2018-05-11T01:43:16.754Z,11.80
2018-05-11T01:45:20.373Z,11.80
2018-05-11T01:47:23.858Z,11.80
2018-05-11T01:49:27.603Z,11.80
2018-05-11T01:51:31.087Z,11.80
2018-05-11T01:53:34.634Z,11.70
2018-05-11T01:55:38.126Z,11.70
2018-05-11T01:57:41.675Z,11.70
2018-05-11T01:59:45.151Z,11.70
2018-05-11T02:01:48.947Z,11.70
2018-05-11T02:03:52.883Z,11.60
2018-05-11T02:05:56.035Z,11.60
2018-05-11T02:07:59.194Z,11.60
2018-05-11T02:10:02.335Z,11.60
2018-05-11T02:12:05.484Z,11.60
2018-05-11T02:14:09.748Z,11.50
2018-05-11T02:16:13.609Z,11.50
2018-05-11T02:18:16.882Z,11.50
2018-05-11T02:20:21.357Z,11.50
2018-05-11T02:22:25.463Z,11.50
2018-05-11T02:24:29.092Z,11.40
2018-05-11T02:26:32.234Z,11.40
2018-05-11T02:28:35.398Z,11.40
2018-05-11T02:30:38.531Z,11.40
2018-05-11T02:32:41.678Z,11.30
2018-05-11T02:34:45.615Z,11.30
2018-05-11T02:36:49.125Z,11.30
2018-05-11T02:38:53.081Z,11.20
2018-05-11T02:40:56.224Z,11.20
2018-05-11T02:42:59.367Z,11.20
2018-05-11T02:45:02.543Z,11.20
2018-05-11T02:47:05.685Z,11.20
2018-05-11T02:49:09.334Z,11.10
2018-05-11T02:51:12.493Z,11.10
2018-05-11T02:53:16.427Z,11.10
2018-05-11T02:55:20.334Z,11.00
2018-05-11T02:57:23.479Z,11.00
2018-05-11T02:59:26.650Z,11.00
2018-05-11T03:01:29.808Z,11.00
2018-05-11T03:03:32.969Z,11.00
2018-05-11T03:05:36.874Z,10.90
2018-05-11T03:07:40.011Z,10.90
2018-05-11T03:09:43.951Z,10.90
2018-05-11T03:11:47.116Z,10.80
2018-05-11T03:13:50.283Z,10.80
2018-05-11T03:15:53.423Z,10.80
2018-05-11T03:17:56.591Z,10.80
2018-05-11T03:19:59.751Z,10.70
2018-05-11T03:22:03.658Z,10.70
2018-05-11T03:24:06.821Z,10.70
2018-05-11T03:26:09.967Z,10.70
2018-05-11T03:28:13.132Z,10.60
2018-05-11T03:30:17.077Z,10.60
2018-05-11T03:32:20.215Z,10.60
2018-05-11T03:34:23.392Z,10.60
2018-05-11T03:36:26.535Z,10.60
2018-05-11T03:38:29.791Z,10.60
2018-05-11T03:40:33.722Z,10.50
2018-05-11T03:42:36.886Z,10.50
2018-05-11T03:44:40.047Z,10.50
2018-05-11T03:46:43.186Z,10.50
2018-05-11T03:48:46.329Z,10.50
2018-05-11T03:50:49.882Z,10.50
2018-05-11T03:52:53.058Z,10.50
2018-05-11T03:54:58.514Z,10.50
2018-05-11T03:57:03.827Z,10.50
2018-05-11T03:59:08.397Z,10.40
2018-05-11T04:01:29.958Z,10.50
2018-05-11T04:03:52.245Z,10.50
2018-05-11T04:06:04.790Z,10.40
2018-05-11T04:08:26.077Z,10.50
2018-05-11T04:10:31.579Z,10.40
2018-05-11T04:12:36.356Z,10.40
2018-05-11T04:14:42.280Z,10.40
2018-05-11T04:16:46.722Z,10.40
2018-05-11T04:18:51.710Z,10.40
2018-05-11T04:20:56.962Z,10.40
2018-05-11T04:23:01.684Z,10.50
2018-05-11T04:25:06.653Z,10.50
2018-05-11T04:27:11.315Z,10.50
2018-05-11T04:29:14.993Z,10.50
2018-05-11T04:31:19.731Z,10.50
2018-05-11T04:33:24.439Z,10.50
2018-05-11T04:35:29.427Z,10.50
2018-05-11T04:37:33.338Z,10.60
2018-05-11T04:39:36.483Z,10.50
2018-05-11T04:41:40.426Z,10.60
2018-05-11T04:43:43.617Z,10.60
2018-05-11T04:45:47.547Z,10.60
2018-05-11T04:47:50.703Z,10.60
2018-05-11T04:49:53.863Z,10.70
2018-05-11T04:51:57.009Z,10.70
2018-05-11T04:54:00.157Z,10.70
2018-05-11T04:56:04.090Z,10.70
2018-05-11T04:58:08.002Z,10.80
2018-05-11T05:00:11.174Z,10.80
2018-05-11T05:02:14.319Z,10.80
2018-05-11T05:04:17.480Z,10.80
2018-05-11T05:06:20.654Z,10.80
2018-05-11T05:08:24.558Z,10.90
2018-05-11T05:10:28.507Z,10.90
2018-05-11T05:12:32.423Z,11.00
2018-05-11T05:14:36.328Z,11.00
2018-05-11T05:16:39.506Z,11.00
2018-05-11T05:18:42.650Z,11.00
2018-05-11T05:20:45.823Z,11.00
2018-05-11T05:22:48.979Z,11.10
2018-05-11T05:24:52.890Z,11.10
2018-05-11T05:26:56.061Z,11.10
2018-05-11T05:28:59.205Z,11.20
2018-05-11T05:31:02.419Z,11.20
2018-05-11T05:33:06.396Z,11.20
2018-05-11T05:35:11.378Z,11.30
2018-05-11T05:37:14.542Z,11.30
2018-05-11T05:39:17.736Z,11.30
2018-05-11T05:41:22.706Z,11.40
2018-05-11T05:43:26.102Z,11.40
2018-05-11T05:45:29.264Z,11.40
2018-05-11T05:47:32.407Z,11.40
2018-05-11T05:49:36.319Z,11.50
2018-05-11T05:51:40.263Z,11.60
2018-05-11T05:53:44.173Z,11.60
2018-05-11T05:55:48.107Z,11.60
2018-05-11T05:57:52.023Z,11.60
2018-05-11T05:59:56.027Z,11.70
2018-05-11T06:01:59.135Z,11.70
2018-05-11T06:04:02.278Z,11.70
2018-05-11T06:06:05.458Z,11.80
2018-05-11T06:08:09.481Z,11.80
2018-05-11T06:10:12.570Z,11.80
2018-05-11T06:12:15.757Z,11.80
2018-05-11T06:14:18.922Z,11.90
2018-05-11T06:16:22.955Z,11.90
2018-05-11T06:18:26.863Z,12.00
2018-05-11T06:20:30.034Z,11.90
2018-05-11T06:22:33.206Z,12.00
2018-05-11T06:24:37.140Z,12.10
2018-05-11T06:26:40.306Z,12.00
2018-05-11T06:28:43.451Z,12.10
2018-05-11T06:30:47.177Z,12.10
2018-05-11T06:32:50.505Z,12.20
2018-05-11T06:34:53.656Z,12.20
2018-05-11T06:36:56.794Z,12.20
2018-05-11T06:38:59.970Z,12.30
2018-05-11T06:41:03.722Z,12.40
2018-05-11T06:43:06.870Z,12.40
2018-05-11T06:45:10.024Z,12.50
2018-05-11T06:47:13.786Z,12.50
2018-05-11T06:49:16.930Z,12.60
2018-05-11T06:51:21.608Z,12.70
2018-05-11T06:53:24.754Z,12.70
2018-05-11T06:55:27.907Z,12.80
2018-05-11T06:57:31.850Z,12.90
2018-05-11T06:59:34.994Z,12.90
2018-05-11T07:01:38.263Z,13.00
2018-05-11T07:03:41.386Z,13.10
2018-05-11T07:05:44.531Z,13.10
2018-05-11T07:07:50.008Z,13.20
2018-05-11T07:09:54.757Z,13.40
2018-05-11T07:11:58.714Z,13.50
2018-05-11T07:14:02.025Z,13.50
2018-05-11T07:16:06.033Z,13.70
2018-05-11T07:18:15.635Z,13.80
2018-05-11T07:20:18.787Z,13.80
2018-05-11T07:22:22.770Z,14.00
2018-05-11T07:24:26.311Z,13.90
2018-05-11T07:26:29.462Z,14.10
2018-05-11T07:28:32.634Z,14.20
2018-05-11T07:30:37.681Z,14.40
2018-05-11T07:32:40.864Z,14.40
2018-05-11T07:34:44.115Z,14.50
2018-05-11T07:36:47.286Z,14.60
2018-05-11T07:38:50.459Z,14.70
2018-05-11T07:40:53.607Z,14.80
2018-05-11T07:42:57.534Z,14.90
2018-05-11T07:45:00.803Z,15.10
2018-05-11T07:47:03.983Z,15.20
2018-05-11T07:49:07.919Z,15.50
2018-05-11T07:51:11.846Z,15.60
2018-05-11T07:53:15.796Z,15.70
2018-05-11T07:55:18.950Z,15.70
2018-05-11T07:57:23.641Z,16.00
2018-05-11T08:01:35.360Z,16.10
2018-05-11T08:03:39.295Z,16.40
2018-05-11T08:05:42.478Z,16.40
2018-05-11T08:07:45.661Z,16.50
2018-05-11T08:09:48.817Z,16.60
2018-05-11T08:11:52.967Z,16.90
2018-05-11T08:13:56.138Z,16.80
2018-05-11T08:15:59.289Z,17.00
2018-05-11T08:18:02.466Z,17.10
2018-05-11T08:20:05.639Z,17.20
2018-05-11T08:22:08.780Z,17.30
2018-05-11T08:24:12.713Z,17.50
2018-05-11T08:26:17.748Z,17.60
2018-05-11T08:28:20.957Z,17.60
2018-05-11T08:30:24.921Z,17.80
2018-05-11T08:32:28.102Z,17.70
2018-05-11T08:34:32.082Z,18.00
2018-05-11T08:36:35.227Z,17.90
2018-05-11T08:38:39.178Z,18.10
2018-05-11T08:40:42.323Z,18.10
2018-05-11T08:42:45.524Z,18.20
2018-05-11T08:44:48.690Z,18.30
2018-05-11T08:46:52.612Z,18.40
2018-05-11T08:48:56.562Z,18.50
2018-05-11T08:50:59.706Z,18.50
2018-05-11T08:53:03.422Z,18.70
2018-05-11T08:55:06.607Z,18.70
2018-05-11T08:57:10.107Z,18.80
2018-05-11T08:59:13.966Z,19.00
2018-05-11T09:01:18.245Z,19.00
2018-05-11T09:03:22.182Z,19.20
2018-05-11T09:05:25.330Z,19.20
2018-05-11T09:07:28.497Z,19.30
2018-05-11T09:09:32.427Z,19.50
2018-05-11T09:11:35.613Z,19.50
2018-05-11T09:13:39.572Z,19.70
2018-05-11T09:15:42.719Z,19.60
2018-05-11T09:17:45.865Z,19.80
2018-05-11T09:19:49.803Z,20.00
2018-05-11T09:21:52.991Z,20.00
2018-05-11T09:23:56.925Z,20.10
2018-05-11T09:26:00.858Z,20.20
2018-05-11T09:28:04.031Z,20.20
2018-05-11T09:30:07.198Z,20.30
2018-05-11T09:32:10.396Z,20.30
2018-05-11T09:34:15.532Z,20.40
2018-05-11T09:36:19.465Z,20.60
2018-05-11T09:38:22.638Z,20.50
2018-05-11T09:40:25.816Z,20.60
2018-05-11T09:42:28.963Z,20.70
2018-05-11T09:44:32.147Z,20.80
2018-05-11T09:46:35.293Z,20.90
2018-05-11T09:48:38.641Z,21.00
2018-05-11T09:50:41.786Z,21.10
2018-05-11T09:52:45.739Z,21.20
2018-05-11T09:54:49.683Z,21.30
2018-05-11T09:56:53.077Z,21.30
2018-05-11T09:58:57.015Z,21.50
2018-05-11T10:01:00.158Z,21.40
2018-05-11T10:03:03.306Z,21.50
2018-05-11T10:05:07.247Z,21.70
2018-05-11T10:07:13.436Z,21.80
2018-05-11T10:09:16.746Z,21.70
2018-05-11T10:11:19.938Z,21.80
2018-05-11T10:13:24.367Z,21.90
2018-05-11T10:15:28.333Z,21.90
2018-05-11T10:17:31.510Z,21.90
2018-05-11T10:19:35.456Z,22.00
2018-05-11T10:21:38.593Z,21.90
2018-05-11T10:23:41.810Z,22.00
2018-05-11T10:25:45.061Z,22.10
2018-05-11T10:27:48.182Z,22.10
2018-05-11T10:29:51.355Z,22.10
2018-05-11T10:31:54.506Z,22.20
2018-05-11T10:33:57.703Z,22.20
2018-05-11T10:36:02.983Z,22.30
2018-05-11T10:38:06.122Z,22.30
2018-05-11T10:40:09.292Z,22.40
2018-05-11T10:42:12.454Z,22.40
2018-05-11T10:44:15.630Z,22.50
2018-05-11T10:46:18.775Z,22.60
2018-05-11T10:48:22.122Z,22.70
2018-05-11T10:50:25.309Z,22.70
2018-05-11T10:52:29.228Z,22.90
2018-05-11T10:54:33.163Z,22.90
2018-05-11T10:56:37.192Z,23.00
2018-05-11T10:58:40.351Z,23.00
2018-05-11T11:00:43.954Z,23.10
2018-05-11T11:02:47.101Z,23.10
2018-05-11T11:04:50.271Z,23.10
2018-05-11T11:06:53.442Z,23.20
2018-05-11T11:08:57.370Z,23.30
2018-05-11T11:11:01.303Z,23.30
2018-05-11T11:13:04.459Z,23.30
2018-05-11T11:15:07.631Z,23.40
2018-05-11T11:17:10.796Z,23.40
2018-05-11T11:19:14.266Z,23.50
2018-05-11T11:21:17.408Z,23.60
2018-05-11T11:23:20.550Z,23.60
2018-05-11T11:25:24.526Z,23.70
2018-05-11T11:27:27.676Z,23.70
2018-05-11T11:29:31.618Z,23.80
2018-05-11T11:31:34.917Z,23.80
2018-05-11T11:33:38.227Z,23.80
2018-05-11T11:35:41.346Z,23.80
2018-05-11T11:37:44.494Z,23.80
2018-05-11T11:39:47.675Z,23.80
2018-05-11T11:41:50.878Z,23.90
2018-05-11T11:43:54.779Z,23.90
2018-05-11T11:45:58.558Z,23.90
2018-05-11T11:48:01.711Z,23.90
2018-05-11T11:50:05.658Z,24.00
2018-05-11T11:52:08.814Z,24.00
2018-05-11T11:54:11.994Z,24.10
2018-05-11T11:56:15.171Z,24.10
2018-05-11T11:58:18.541Z,24.10
2018-05-11T12:00:21.706Z,24.10
2018-05-11T12:02:24.846Z,24.10
2018-05-11T12:04:28.769Z,24.10
2018-05-11T12:06:33.007Z,24.00
2018-05-11T12:08:38.691Z,24.00
2018-05-11T12:10:44.001Z,24.00
2018-05-11T12:12:49.537Z,24.00
2018-05-11T12:14:53.668Z,23.90
2018-05-11T12:16:57.797Z,23.90
2018-05-11T12:19:01.967Z,23.90
2018-05-11T12:21:05.262Z,23.90
2018-05-11T12:23:08.434Z,23.90
2018-05-11T12:25:11.610Z,23.90
2018-05-11T12:27:14.786Z,23.90
2018-05-11T12:29:17.934Z,23.90
2018-05-11T12:31:21.123Z,23.90
2018-05-11T12:33:24.276Z,23.90
2018-05-11T12:35:27.461Z,23.90
2018-05-11T12:37:30.634Z,23.90
2018-05-11T12:39:33.779Z,23.90
2018-05-11T12:41:36.978Z,23.90
2018-05-11T12:43:40.907Z,23.90
2018-05-11T12:45:44.084Z,23.90
2018-05-11T12:47:47.246Z,23.90
2018-05-11T12:49:50.402Z,23.90
2018-05-11T12:51:53.609Z,23.90
2018-05-11T12:56:06.223Z,23.90
2018-05-11T12:58:09.526Z,23.90
2018-05-11T13:00:13.469Z,24.00
2018-05-11T13:02:17.428Z,24.00
2018-05-11T13:04:20.625Z,24.00
2018-05-11T13:06:23.796Z,24.10
2018-05-11T13:08:26.950Z,24.10
2018-05-11T13:10:30.091Z,24.10
2018-05-11T13:12:33.267Z,24.20
2018-05-11T13:14:36.412Z,24.20
2018-05-11T13:16:40.349Z,24.30
2018-05-11T13:18:43.492Z,24.30
2018-05-11T13:20:46.699Z,24.30
2018-05-11T13:22:50.605Z,24.30
2018-05-11T13:24:53.754Z,24.30
2018-05-11T13:26:57.188Z,24.30
2018-05-11T13:29:00.353Z,24.40
2018-05-11T13:31:05.567Z,24.40
2018-05-11T13:33:08.750Z,24.40
2018-05-11T13:35:11.903Z,24.40
2018-05-11T13:37:15.078Z,24.40
2018-05-11T13:39:18.361Z,24.50
2018-05-11T13:41:21.531Z,24.50
2018-05-11T13:43:25.474Z,24.70
2018-05-11T13:45:31.522Z,24.70
2018-05-11T13:47:35.494Z,24.80
2018-05-11T13:49:38.671Z,24.70
2018-05-11T13:51:42.674Z,24.90
2018-05-11T13:53:45.823Z,24.80
2018-05-11T13:55:49.887Z,24.90
2018-05-11T13:57:54.201Z,24.90
2018-05-11T13:59:57.449Z,25.00
2018-05-11T14:02:00.711Z,25.00
2018-05-11T14:04:03.861Z,25.00
2018-05-11T14:06:07.020Z,25.10
2018-05-11T14:08:10.961Z,25.10
2018-05-11T14:10:14.140Z,25.10
2018-05-11T14:12:17.301Z,25.10
2018-05-11T14:14:20.451Z,25.00
2018-05-11T14:16:23.595Z,25.10
2018-05-11T14:18:26.855Z,25.00
2018-05-11T14:20:30.019Z,25.00
2018-05-11T14:22:33.269Z,25.00
2018-05-11T14:24:36.423Z,25.00
2018-05-11T14:26:39.594Z,25.00
2018-05-11T14:28:42.756Z,25.10
2018-05-11T14:30:45.906Z,25.10
2018-05-11T14:32:49.855Z,25.10
2018-05-11T14:34:53.771Z,25.20
2018-05-11T14:36:58.839Z,25.20
2018-05-11T14:39:02.981Z,25.30
2018-05-11T14:41:06.126Z,25.20
2018-05-11T14:43:09.312Z,25.20
2018-05-11T14:45:12.457Z,25.30
2018-05-11T14:47:16.122Z,25.30
2018-05-11T14:49:19.295Z,25.40
2018-05-11T14:51:22.439Z,25.40
2018-05-11T14:53:25.610Z,25.50
2018-05-11T14:55:28.761Z,25.60
2018-05-11T14:57:31.934Z,25.60
2018-05-11T14:59:35.087Z,25.60
2018-05-11T15:01:38.898Z,25.60
2018-05-11T15:03:42.096Z,25.60
2018-05-11T15:05:45.273Z,25.60
2018-05-11T15:07:48.516Z,25.60
2018-05-11T15:09:51.669Z,25.60
2018-05-11T15:11:54.854Z,25.60
2018-05-11T15:13:59.008Z,25.60
2018-05-11T15:16:02.170Z,25.60
2018-05-11T15:18:05.359Z,25.60
2018-05-11T15:20:09.275Z,25.50
2018-05-11T15:22:12.602Z,25.50
2018-05-11T15:24:16.515Z,25.50
2018-05-11T15:26:19.688Z,25.50
2018-05-11T15:28:22.879Z,25.40
2018-05-11T15:30:26.353Z,25.40
2018-05-11T15:32:29.596Z,25.30
2018-05-11T15:34:32.856Z,25.20
2018-05-11T15:36:36.001Z,25.10
2018-05-11T15:38:39.251Z,25.10
2018-05-11T15:40:42.427Z,25.00
2018-05-11T15:42:45.606Z,24.90
2018-05-11T15:44:48.779Z,24.90
2018-05-11T15:46:51.920Z,24.90
2018-05-11T15:48:55.086Z,24.80
2018-05-11T15:50:59.348Z,24.80
2018-05-11T15:53:02.518Z,24.70
2018-05-11T15:55:05.667Z,24.70
2018-05-11T15:57:08.811Z,24.70
2018-05-11T15:59:12.007Z,24.60
2018-05-11T16:01:15.174Z,24.60
2018-05-11T16:03:19.471Z,24.60
2018-05-11T16:05:22.619Z,24.60
2018-05-11T16:07:25.867Z,24.60
2018-05-11T16:09:29.822Z,24.50
2018-05-11T16:11:33.001Z,24.50
2018-05-11T16:13:37.014Z,24.40
2018-05-11T16:15:41.101Z,24.40
2018-05-11T16:17:44.277Z,24.40
2018-05-11T16:19:47.450Z,24.30
2018-05-11T16:21:50.762Z,24.20
2018-05-11T16:23:54.879Z,24.10
2018-05-11T16:25:58.025Z,24.10
2018-05-11T16:28:01.938Z,24.00
2018-05-11T16:30:05.910Z,23.90
2018-05-11T16:32:09.042Z,23.90
2018-05-11T16:34:12.215Z,23.90
2018-05-11T16:36:15.387Z,23.80
2018-05-11T16:38:19.471Z,23.70
2018-05-11T16:40:23.802Z,23.70
2018-05-11T16:42:27.675Z,23.60
2018-05-11T16:44:31.837Z,23.50
2018-05-11T16:46:35.030Z,23.50
2018-05-11T16:48:38.974Z,23.40
2018-05-11T16:50:42.123Z,23.40
2018-05-11T16:52:45.265Z,23.30
2018-05-11T16:54:49.210Z,23.30
2018-05-11T16:56:52.368Z,23.30
2018-05-11T16:58:55.538Z,23.30
2018-05-11T17:00:58.689Z,23.20
2018-05-11T17:03:01.837Z,23.20
2018-05-11T17:05:05.771Z,23.10
2018-05-11T17:07:08.963Z,23.20
2018-05-11T17:09:12.910Z,23.10
2018-05-11T17:11:16.049Z,23.10
2018-05-11T17:13:19.223Z,23.10
2018-05-11T17:15:22.376Z,23.10
2018-05-11T17:17:25.542Z,23.00
2018-05-11T17:19:29.687Z,23.00
2018-05-11T17:21:33.719Z,23.00
2018-05-11T17:23:36.922Z,23.00
2018-05-11T17:25:40.181Z,22.90
2018-05-11T17:27:46.217Z,22.90
2018-05-11T17:29:49.415Z,22.90
2018-05-11T17:32:02.988Z,22.90
2018-05-11T17:34:27.523Z,22.90
2018-05-11T17:36:30.720Z,22.80
2018-05-11T17:38:33.957Z,22.70
2018-05-11T17:40:37.960Z,22.70
2018-05-11T17:42:41.245Z,22.60
2018-05-11T17:45:07.799Z,22.60
2018-05-11T17:47:11.905Z,22.60
2018-05-11T17:49:15.091Z,22.50
2018-05-11T17:51:18.352Z,22.60
2018-05-11T17:53:22.365Z,22.40
2018-05-11T17:55:26.434Z,22.40
2018-05-11T17:57:30.533Z,22.40
2018-05-11T17:59:33.930Z,22.40
2018-05-11T18:01:38.484Z,22.30
2018-05-11T18:03:41.778Z,22.30
2018-05-11T18:05:45.526Z,22.40
2018-05-11T18:07:48.816Z,22.30
2018-05-11T18:10:07.239Z,22.30
2018-05-11T18:12:10.411Z,22.30
2018-05-11T18:14:13.635Z,22.20
2018-05-11T18:16:16.819Z,22.20
2018-05-11T18:18:20.035Z,22.10
2018-05-11T18:20:23.259Z,22.10
2018-05-11T18:22:26.437Z,22.10
2018-05-11T18:24:29.631Z,22.10
2018-05-11T18:26:32.841Z,22.10
2018-05-11T18:28:36.047Z,22.00
2018-05-11T18:30:39.344Z,22.00
2018-05-11T18:32:42.665Z,22.00
2018-05-11T18:34:45.910Z,22.00
2018-05-11T18:36:49.215Z,22.00
2018-05-11T18:38:52.410Z,21.90
2018-05-11T18:40:55.618Z,21.90
2018-05-11T18:42:58.769Z,21.80
2018-05-11T18:45:02.118Z,21.80
2018-05-11T18:47:05.409Z,21.80
2018-05-11T18:49:08.558Z,21.70
2018-05-11T18:51:11.950Z,21.70
2018-05-11T18:53:15.330Z,21.70
2018-05-11T18:55:18.364Z,21.60
2018-05-11T18:57:21.524Z,21.60
2018-05-11T18:59:26.837Z,21.50
2018-05-11T19:01:30.048Z,21.50
2018-05-11T19:03:33.235Z,21.50
2018-05-11T19:05:37.209Z,21.40
2018-05-11T19:07:40.420Z,21.40
2018-05-11T19:09:43.611Z,21.30
2018-05-11T19:11:46.819Z,21.30
2018-05-11T19:13:49.994Z,21.30
2018-05-11T19:15:54.384Z,21.20
2018-05-11T19:17:59.752Z,21.10
2018-05-11T19:20:03.241Z,21.10
2018-05-11T19:22:06.619Z,21.10
2018-05-11T19:24:09.853Z,21.00
2018-05-11T19:26:13.128Z,21.00
2018-05-11T19:28:17.196Z,20.90
2018-05-11T19:30:20.669Z,20.90
2018-05-11T19:32:23.949Z,20.80
2018-05-11T19:34:27.422Z,20.80
2018-05-11T19:36:30.713Z,20.70
2018-05-11T19:38:34.877Z,20.60
2018-05-11T19:40:38.233Z,20.60
2018-05-11T19:42:41.573Z,20.60
2018-05-11T19:44:45.697Z,20.50
2018-05-11T19:46:48.922Z,20.50
2018-05-11T19:48:52.882Z,20.50
2018-05-11T19:50:56.116Z,20.30
2018-05-11T19:52:59.304Z,20.30
2018-05-11T19:55:02.499Z,20.30
2018-05-11T19:57:05.731Z,20.20
2018-05-11T19:59:08.927Z,20.20
2018-05-11T20:01:12.119Z,20.10
2018-05-11T20:03:15.328Z,20.10
2018-05-11T20:05:18.506Z,20.00
2018-05-11T20:07:22.492Z,19.90
2018-05-11T20:09:25.717Z,19.90
2018-05-11T20:11:29.019Z,19.90
2018-05-11T20:13:32.258Z,19.80
2018-05-11T20:15:36.290Z,19.70
2018-05-11T20:17:40.287Z,19.70
2018-05-11T20:19:43.469Z,19.70
2018-05-11T20:21:47.295Z,19.60
2018-05-11T20:23:50.472Z,19.60
2018-05-11T20:25:54.493Z,19.50
2018-05-11T20:27:58.480Z,19.40
2018-05-11T20:30:01.744Z,19.40
2018-05-11T20:32:05.960Z,19.30
2018-05-11T20:34:09.133Z,19.30
2018-05-11T20:36:12.316Z,19.30
2018-05-11T20:38:15.520Z,19.20
2018-05-11T20:40:18.769Z,19.20
2018-05-11T20:42:21.981Z,19.10
2018-05-11T20:44:26.892Z,19.00
2018-05-11T20:46:30.141Z,19.00
2018-05-11T20:48:33.544Z,18.90
2018-05-11T20:50:36.762Z,18.90
2018-05-11T20:52:39.966Z,18.90
2018-05-11T20:54:43.188Z,18.80
2018-05-11T20:56:46.429Z,18.80
2018-05-11T20:58:50.465Z,18.70
2018-05-11T21:00:54.812Z,18.60
2018-05-11T21:02:58.165Z,18.60
2018-05-11T21:05:01.381Z,18.60
2018-05-11T21:07:04.769Z,18.60
2018-05-11T21:09:08.038Z,18.50
2018-05-11T21:11:11.328Z,18.50
2018-05-11T21:13:14.567Z,18.40
2018-05-11T21:15:18.629Z,18.40
2018-05-11T21:17:22.279Z,18.40
2018-05-11T21:19:26.451Z,18.30
2018-05-11T21:21:29.638Z,18.30
2018-05-11T21:23:33.623Z,18.20
2018-05-11T21:25:36.833Z,18.20
2018-05-11T21:27:40.268Z,18.20
2018-05-11T21:29:43.471Z,18.20
2018-05-11T21:31:46.666Z,18.10
2018-05-11T21:33:50.617Z,18.10
2018-05-11T21:35:53.811Z,18.00
2018-05-11T21:37:57.017Z,18.10
2018-05-11T21:40:00.246Z,18.00
2018-05-11T21:42:04.594Z,17.90
2018-05-11T21:44:08.669Z,17.90
2018-05-11T21:46:11.835Z,17.90
2018-05-11T21:48:15.014Z,17.80
2018-05-11T21:50:18.176Z,17.80
2018-05-11T21:52:21.687Z,17.70
2018-05-11T21:54:26.802Z,17.60
2018-05-11T21:56:29.967Z,17.60
2018-05-11T21:58:33.152Z,17.60
2018-05-11T22:00:37.148Z,17.50
2018-05-11T22:02:40.343Z,17.50
2018-05-11T22:04:43.536Z,17.50
2018-05-11T22:06:46.885Z,17.40
2018-05-11T22:08:50.122Z,17.30
2018-05-11T22:10:54.055Z,17.20
2018-05-11T22:12:58.022Z,17.20
2018-05-11T22:15:01.197Z,17.20
2018-05-11T22:17:04.354Z,17.20
2018-05-11T22:19:07.565Z,17.10
2018-05-11T22:21:10.728Z,17.00
2018-05-11T22:23:13.931Z,17.00
2018-05-11T22:25:17.088Z,17.00
2018-05-11T22:27:20.254Z,16.90
2018-05-11T22:29:23.449Z,16.90
2018-05-11T22:31:26.980Z,16.80
2018-05-11T22:33:31.024Z,16.80
2018-05-11T22:35:34.180Z,16.80
2018-05-11T22:37:37.339Z,16.70
2018-05-11T22:39:40.542Z,16.70
2018-05-11T22:41:43.712Z,16.70
2018-05-11T22:43:47.203Z,16.60
2018-05-11T22:45:50.430Z,16.60
2018-05-11T22:47:53.592Z,16.50
2018-05-11T22:49:59.067Z,16.50
2018-05-11T22:52:04.882Z,16.50
2018-05-11T22:54:08.833Z,16.40
2018-05-11T22:56:12.006Z,16.40
2018-05-11T22:58:15.208Z,16.40
2018-05-11T23:00:27.759Z,16.40
2018-05-11T23:02:31.670Z,16.30
2018-05-11T23:04:35.625Z,16.30
2018-05-11T23:06:38.789Z,16.30
2018-05-11T23:08:41.975Z,16.30
2018-05-11T23:10:45.149Z,16.30
2018-05-11T23:12:48.336Z,16.20
2018-05-11T23:14:52.288Z,16.20
2018-05-11T23:16:55.470Z,16.20
2018-05-11T23:18:59.431Z,16.20
2018-05-11T23:21:02.594Z,16.10
2018-05-11T23:23:05.758Z,16.10
2018-05-11T23:25:08.952Z,16.10
2018-05-11T23:27:12.146Z,16.10
2018-05-11T23:29:16.108Z,16.10
2018-05-11T23:31:19.264Z,16.10
2018-05-11T23:33:23.181Z,16.10
2018-05-11T23:35:26.370Z,16.00
2018-05-11T23:37:29.597Z,16.00
2018-05-11T23:39:32.799Z,16.00
2018-05-11T23:41:35.959Z,16.00
2018-05-11T23:43:39.174Z,16.00
2018-05-11T23:45:42.357Z,16.00
2018-05-11T23:47:46.280Z,16.00
2018-05-11T23:49:50.374Z,16.00
2018-05-11T23:51:53.519Z,16.00
2018-05-11T23:53:57.473Z,16.00
2018-05-11T23:56:00.631Z,16.00
2018-05-11T23:58:03.799Z,15.90
